createdAt,value
2023-02-06T00:00:23.547Z,49.4
2023-02-06T00:01:39.843Z,49.1
2023-02-06T00:02:56.106Z,48.6
2023-02-06T00:05:28.721Z,50.1
2023-02-06T00:06:44.985Z,49.9
2023-02-06T00:08:01.316Z,49.6
2023-02-06T00:09:17.616Z,49.6
2023-02-06T00:10:33.870Z,49.1
2023-02-06T00:11:50.177Z,49.4
2023-02-06T00:13:05.489Z,49.9
2023-02-06T00:14:21.789Z,49.3
2023-02-06T00:15:38.080Z,49.4
2023-02-06T00:16:54.381Z,48.9
2023-02-06T00:18:10.675Z,51.5
2023-02-06T00:19:26.959Z,49.6
2023-02-06T00:20:43.270Z,49.7
2023-02-06T00:21:59.558Z,49.4
2023-02-06T00:23:15.870Z,49.1
2023-02-06T00:24:32.139Z,49.4
2023-02-06T00:25:48.429Z,49.6
2023-02-06T00:27:04.737Z,49.9
2023-02-06T00:28:21.038Z,49.4
2023-02-06T00:29:36.336Z,49.9
2023-02-06T00:30:52.629Z,49.9
2023-02-06T00:32:08.929Z,49.4
2023-02-06T00:33:25.230Z,50.4
2023-02-06T00:34:41.524Z,50.7
2023-02-06T00:35:57.810Z,51
2023-02-06T00:37:14.115Z,50.9
2023-02-06T00:38:30.401Z,50.9
2023-02-06T00:39:46.694Z,50.1
2023-02-06T00:41:03.004Z,49.1
2023-02-06T00:43:35.580Z,49.1
2023-02-06T00:44:51.873Z,49.6
2023-02-06T00:46:07.190Z,49.4
2023-02-06T00:47:23.487Z,49.9
2023-02-06T00:48:39.773Z,50.1
2023-02-06T00:49:56.071Z,50.4
2023-02-06T00:51:12.378Z,49.4
2023-02-06T00:52:28.678Z,49.9
2023-02-06T00:53:44.970Z,49.9
2023-02-06T00:55:01.258Z,50.4
2023-02-06T00:56:17.566Z,50.1
2023-02-06T00:57:33.854Z,50.4
2023-02-06T00:58:50.149Z,51
2023-02-06T01:00:06.444Z,50.4
2023-02-06T01:01:22.730Z,50.7
2023-02-06T01:02:38.036Z,51.2
2023-02-06T01:03:54.336Z,51.2
2023-02-06T01:05:10.628Z,51.4
2023-02-06T01:06:26.923Z,50.4
2023-02-06T01:07:43.233Z,49.9
2023-02-06T01:08:59.512Z,50.1
2023-02-06T01:10:15.826Z,49.9
2023-02-06T01:11:32.110Z,49.7
2023-02-06T01:12:48.410Z,49.4
2023-02-06T01:14:04.716Z,50.5
2023-02-06T01:15:20.992Z,50.2
2023-02-06T01:16:37.284Z,50.4
2023-02-06T01:17:53.585Z,49.9
2023-02-06T01:19:08.894Z,49.4
2023-02-06T01:20:25.194Z,49.9
2023-02-06T01:21:41.496Z,50.1
2023-02-06T01:22:57.790Z,50.7
2023-02-06T01:24:14.094Z,50.2
2023-02-06T01:25:30.372Z,53.9
2023-02-06T01:26:46.684Z,50.4
2023-02-06T01:28:02.959Z,49.9
2023-02-06T01:29:19.251Z,50.1
2023-02-06T01:30:35.553Z,49.9
2023-02-06T01:31:51.856Z,49.4
2023-02-06T01:34:24.441Z,49.9
2023-02-06T01:35:39.748Z,49.9
2023-02-06T01:36:56.055Z,49.6
2023-02-06T01:38:12.334Z,49.4
2023-02-06T01:39:28.630Z,49.7
2023-02-06T01:40:44.929Z,49.7
2023-02-06T01:42:01.221Z,49.6
2023-02-06T01:44:33.814Z,49.4
2023-02-06T01:45:50.115Z,49.4
2023-02-06T01:47:06.415Z,49.3
2023-02-06T01:48:22.694Z,49.6
2023-02-06T01:49:39.008Z,51.7
2023-02-06T01:50:55.289Z,49.3
2023-02-06T01:52:10.599Z,48.3
2023-02-06T01:53:26.919Z,48.9
2023-02-06T01:54:43.193Z,50.2
2023-02-06T01:55:59.502Z,49.1
2023-02-06T01:57:15.781Z,49.4
2023-02-06T01:58:32.072Z,49.1
2023-02-06T01:59:48.367Z,49.9
2023-02-06T02:01:04.676Z,49.1
2023-02-06T02:02:20.000Z,48.9
2023-02-06T02:03:37.260Z,48.5
2023-02-06T02:04:53.575Z,49.1
2023-02-06T02:07:26.143Z,50.1
2023-02-06T02:08:41.457Z,50.1
2023-02-06T02:09:57.749Z,49.6
2023-02-06T02:11:14.044Z,49.4
2023-02-06T02:12:30.340Z,49.4
2023-02-06T02:13:46.646Z,49.4
2023-02-06T02:15:02.939Z,49.1
2023-02-06T02:16:19.238Z,48.9
2023-02-06T02:17:35.538Z,49.3
2023-02-06T02:18:51.833Z,49.4
2023-02-06T02:20:08.136Z,49.4
2023-02-06T02:21:24.415Z,48.9
2023-02-06T02:22:40.700Z,49.4
2023-02-06T02:23:57.004Z,50.1
2023-02-06T02:25:12.309Z,49.9
2023-02-06T02:26:28.600Z,48.9
2023-02-06T02:27:44.909Z,49.4
2023-02-06T02:29:01.206Z,49.4
2023-02-06T02:30:17.509Z,48.9
2023-02-06T02:31:33.795Z,48.9
2023-02-06T02:32:50.093Z,48.8
2023-02-06T02:34:06.381Z,48.1
2023-02-06T02:35:22.677Z,48.8
2023-02-06T02:37:55.280Z,54.7
2023-02-06T02:39:11.558Z,53
2023-02-06T02:40:27.860Z,50.1
2023-02-06T02:41:43.162Z,49.9
2023-02-06T02:42:59.458Z,50.4
2023-02-06T02:44:15.753Z,52
2023-02-06T02:45:32.058Z,49.9
2023-02-06T02:46:48.338Z,50.1
2023-02-06T02:48:04.633Z,49.6
2023-02-06T02:49:20.935Z,49.6
2023-02-06T02:50:37.230Z,48.9
2023-02-06T02:51:53.523Z,48.1
2023-02-06T02:53:09.818Z,48.5
2023-02-06T02:54:26.109Z,48.9
2023-02-06T02:55:42.420Z,48.5
2023-02-06T02:56:58.714Z,49.6
2023-02-06T02:58:14.009Z,49.6
2023-02-06T02:59:30.324Z,49.1
2023-02-06T03:00:46.618Z,48.9
2023-02-06T03:02:02.899Z,48.6
2023-02-06T03:03:19.207Z,49.6
2023-02-06T03:04:35.488Z,50.1
2023-02-06T03:05:51.798Z,50.2
2023-02-06T03:07:08.099Z,50.4
2023-02-06T03:08:24.394Z,50.4
2023-02-06T03:09:40.685Z,50.7
2023-02-06T03:10:56.970Z,49.9
2023-02-06T03:12:13.259Z,50.1
2023-02-06T03:13:29.569Z,49.7
2023-02-06T03:14:44.870Z,49.3
2023-02-06T03:16:01.170Z,50.2
2023-02-06T03:17:17.474Z,49.7
2023-02-06T03:18:33.765Z,50.1
2023-02-06T03:19:50.047Z,50.2
2023-02-06T03:21:06.362Z,49.9
2023-02-06T03:22:22.643Z,50.5
2023-02-06T03:23:38.933Z,50.5
2023-02-06T03:24:55.234Z,50.7
2023-02-06T03:26:11.522Z,49.9
2023-02-06T03:27:27.831Z,49.9
2023-02-06T03:28:44.140Z,49.9
2023-02-06T03:30:00.409Z,50.4
2023-02-06T03:31:15.719Z,49.9
2023-02-06T03:32:32.035Z,50.1
2023-02-06T03:33:48.315Z,50.1
2023-02-06T03:35:04.619Z,49.9
2023-02-06T03:36:20.932Z,49.9
2023-02-06T03:37:37.199Z,50.2
2023-02-06T03:38:52.512Z,49.9
2023-02-06T03:40:08.823Z,50.4
2023-02-06T03:41:25.099Z,50.2
2023-02-06T03:42:41.397Z,50.1
2023-02-06T03:43:57.699Z,50.4
2023-02-06T03:45:14.004Z,50.4
2023-02-06T03:46:30.297Z,50.9
2023-02-06T03:47:46.596Z,50.2
2023-02-06T03:49:02.878Z,50.4
2023-02-06T03:50:19.172Z,50.7
2023-02-06T03:51:35.468Z,51
2023-02-06T03:52:51.764Z,50.5
2023-02-06T03:54:08.068Z,49.6
2023-02-06T03:55:23.376Z,49.9
2023-02-06T03:56:39.680Z,50.2
2023-02-06T03:57:55.968Z,50.1
2023-02-06T03:59:12.258Z,51
2023-02-06T04:01:44.837Z,50.4
2023-02-06T04:03:01.152Z,50.4
2023-02-06T04:04:17.440Z,50.2
2023-02-06T04:05:33.724Z,49.7
2023-02-06T04:06:50.049Z,50.7
2023-02-06T04:08:06.333Z,50.9
2023-02-06T04:09:22.626Z,50.4
2023-02-06T04:10:38.903Z,50.2
2023-02-06T04:11:54.230Z,50.2
2023-02-06T04:13:10.522Z,50.1
2023-02-06T04:14:26.832Z,49.3
2023-02-06T04:15:43.111Z,49.3
2023-02-06T04:16:59.414Z,49.9
2023-02-06T04:18:15.706Z,50.7
2023-02-06T04:19:31.985Z,51.7
2023-02-06T04:20:48.298Z,51
2023-02-06T04:22:04.579Z,50.2
2023-02-06T04:23:20.887Z,50.2
2023-02-06T04:24:37.192Z,50.4
2023-02-06T04:25:53.459Z,50.2
2023-02-06T04:27:09.760Z,51
2023-02-06T04:28:25.069Z,52
2023-02-06T04:29:41.390Z,50.2
2023-02-06T04:30:57.656Z,50.1
2023-02-06T04:32:13.983Z,50.2
2023-02-06T04:33:30.252Z,50.2
2023-02-06T04:34:46.549Z,49.7
2023-02-06T04:36:02.852Z,49.9
2023-02-06T04:37:19.159Z,51.2
2023-02-06T04:39:51.722Z,50.4
2023-02-06T04:41:08.019Z,50.1
2023-02-06T04:42:24.346Z,50.7
2023-02-06T04:43:40.626Z,50.5
2023-02-06T04:44:55.926Z,50.5
2023-02-06T04:46:12.224Z,57.8
2023-02-06T04:47:28.515Z,51
2023-02-06T04:48:44.812Z,51.7
2023-02-06T04:50:01.130Z,51.2
2023-02-06T04:51:17.409Z,50.2
2023-02-06T04:52:33.694Z,52.3
2023-02-06T04:53:49.986Z,50.7
2023-02-06T04:55:06.295Z,50.4
2023-02-06T04:56:22.608Z,49.4
2023-02-06T04:57:38.870Z,49.9
2023-02-06T04:58:55.179Z,49.3
2023-02-06T05:00:11.467Z,49.1
2023-02-06T05:01:26.779Z,49.4
2023-02-06T05:02:43.073Z,50.1
2023-02-06T05:03:59.384Z,50.1
2023-02-06T05:05:15.675Z,50.5
2023-02-06T05:06:31.954Z,49.4
2023-02-06T05:07:48.000Z,48.6
2023-02-06T05:10:20.854Z,47.6
2023-02-06T05:11:37.143Z,50.4
2023-02-06T05:12:53.438Z,50.9
2023-02-06T05:14:09.738Z,50.7
2023-02-06T05:15:26.022Z,51
2023-02-06T05:16:42.324Z,51.2
2023-02-06T05:17:57.624Z,49.9
2023-02-06T05:19:13.929Z,50.2
2023-02-06T05:20:30.230Z,50.5
2023-02-06T05:21:46.513Z,50.9
2023-02-06T05:23:02.820Z,50.4
2023-02-06T05:24:19.117Z,50.4
2023-02-06T05:25:35.407Z,50.1
2023-02-06T05:26:51.705Z,49.9
2023-02-06T05:28:07.999Z,49.6
2023-02-06T05:29:24.288Z,53.4
2023-02-06T05:30:40.596Z,51
2023-02-06T05:31:56.870Z,51
2023-02-06T05:33:13.190Z,51.7
2023-02-06T05:34:28.474Z,51.2
2023-02-06T05:35:44.792Z,51.2
2023-02-06T05:37:01.071Z,51.7
2023-02-06T05:38:17.377Z,51.5
2023-02-06T05:39:33.662Z,51
2023-02-06T05:40:49.965Z,51.2
2023-02-06T05:42:06.244Z,51.5
2023-02-06T05:43:22.555Z,51.8
2023-02-06T05:44:38.854Z,51.5
2023-02-06T05:45:55.130Z,52.3
2023-02-06T05:47:11.424Z,51.5
2023-02-06T05:48:27.721Z,51.2
2023-02-06T05:49:44.040Z,52.2
2023-02-06T05:50:59.337Z,51.2
2023-02-06T05:52:15.627Z,51.2
2023-02-06T05:53:31.942Z,50.4
2023-02-06T05:54:48.217Z,50.5
2023-02-06T05:56:04.514Z,50.7
2023-02-06T05:57:20.819Z,50.5
2023-02-06T05:58:37.126Z,50.4
2023-02-06T05:59:53.396Z,50.2
2023-02-06T06:01:09.706Z,53
2023-02-06T06:02:25.987Z,50.1
2023-02-06T06:03:42.279Z,53.1
2023-02-06T06:04:58.592Z,50.5
2023-02-06T06:06:14.867Z,51.4
2023-02-06T06:07:30.186Z,50.4
2023-02-06T06:08:46.503Z,56.8
2023-02-06T06:10:02.771Z,50.4
2023-02-06T06:11:19.089Z,50.7
2023-02-06T06:12:35.370Z,51.7
2023-02-06T06:13:51.603Z,50.7
2023-02-06T06:15:07.898Z,51.8
2023-02-06T06:16:24.155Z,51
2023-02-06T06:17:40.401Z,50.7
2023-02-06T06:18:56.691Z,50.4
2023-02-06T06:20:13.011Z,51
2023-02-06T06:21:29.231Z,50.4
2023-02-06T06:22:45.489Z,50.2
2023-02-06T06:24:00.737Z,51.2
2023-02-06T06:25:16.976Z,51.7
2023-02-06T06:26:33.218Z,50.7
2023-02-06T06:27:49.452Z,50.1
2023-02-06T06:29:05.709Z,49.1
2023-02-06T06:30:21.945Z,50.9
2023-02-06T06:31:38.185Z,51
2023-02-06T06:32:54.438Z,55.5
2023-02-06T06:34:10.673Z,51.2
2023-02-06T06:35:26.910Z,52.2
2023-02-06T06:36:43.147Z,51
2023-02-06T06:37:59.396Z,51
2023-02-06T06:39:15.637Z,51.5
2023-02-06T06:40:30.887Z,53
2023-02-06T06:41:47.122Z,50.9
2023-02-06T06:43:03.380Z,51.5
2023-02-06T06:44:19.605Z,50.2
2023-02-06T06:45:35.852Z,50.5
2023-02-06T06:46:52.110Z,52.6
2023-02-06T06:48:08.342Z,50.7
2023-02-06T06:49:24.584Z,51.4
2023-02-06T06:50:40.819Z,50.4
2023-02-06T06:51:57.066Z,57
2023-02-06T06:53:13.305Z,50.5
2023-02-06T06:54:29.542Z,50.4
2023-02-06T06:55:45.780Z,49.9
2023-02-06T06:57:01.056Z,51.8
2023-02-06T06:58:17.306Z,60.1
2023-02-06T06:59:33.514Z,50.2
2023-02-06T07:00:49.754Z,51
2023-02-06T07:02:06.023Z,50.1
2023-02-06T07:03:22.246Z,51.8
2023-02-06T07:04:38.477Z,49.9
2023-02-06T07:05:54.741Z,49.3
2023-02-06T07:07:10.976Z,49.6
2023-02-06T07:08:27.211Z,62.3
2023-02-06T07:09:43.455Z,50.2
2023-02-06T07:10:59.692Z,50.4
2023-02-06T07:12:15.924Z,50.1
2023-02-06T07:13:31.197Z,49.6
2023-02-06T07:14:47.422Z,49.6
2023-02-06T07:16:03.678Z,49.9
2023-02-06T07:17:19.915Z,50.5
2023-02-06T07:18:36.146Z,49.9
2023-02-06T07:19:52.398Z,49.6
2023-02-06T07:21:08.632Z,51.4
2023-02-06T07:22:24.865Z,54.6
2023-02-06T07:23:41.122Z,49.9
2023-02-06T07:24:57.378Z,49.6
2023-02-06T07:26:13.586Z,50.4
2023-02-06T07:27:29.857Z,49.9
2023-02-06T07:28:46.076Z,50.4
2023-02-06T07:30:01.343Z,49.9
2023-02-06T07:31:17.577Z,49.4
2023-02-06T07:32:33.837Z,48.8
2023-02-06T07:33:50.068Z,52.6
2023-02-06T07:35:06.319Z,51.4
2023-02-06T07:36:22.549Z,51.5
2023-02-06T07:37:38.788Z,50.9
2023-02-06T07:38:55.037Z,51.5
2023-02-06T07:40:11.266Z,51.5
2023-02-06T07:41:27.510Z,50.7
2023-02-06T07:42:43.756Z,57.8
2023-02-06T07:43:59.995Z,51
2023-02-06T07:45:16.229Z,51
2023-02-06T07:46:31.486Z,49.6
2023-02-06T07:47:47.717Z,58.9
2023-02-06T07:49:03.966Z,51.8
2023-02-06T07:50:20.218Z,53.6
2023-02-06T07:51:36.444Z,51.5
2023-02-06T07:52:52.700Z,51.5
2023-02-06T07:54:07.944Z,51.8
2023-02-06T07:55:24.211Z,49.4
2023-02-06T07:56:40.436Z,49.9
2023-02-06T07:57:56.671Z,50.2
2023-02-06T07:59:12.915Z,49.9
2023-02-06T08:00:29.162Z,49.9
2023-02-06T08:01:45.403Z,49.4
2023-02-06T08:03:01.638Z,49.1
2023-02-06T08:04:17.881Z,49.3
2023-02-06T08:05:34.129Z,49.6
2023-02-06T08:06:50.353Z,49.3
2023-02-06T08:08:06.617Z,49.4
2023-02-06T08:09:22.846Z,49.9
2023-02-06T08:10:38.108Z,49.9
2023-02-06T08:11:54.356Z,49.7
2023-02-06T08:13:10.590Z,51.4
2023-02-06T08:14:26.827Z,49.6
2023-02-06T08:15:43.062Z,48.9
2023-02-06T08:16:59.304Z,49.7
2023-02-06T08:18:15.538Z,49.4
2023-02-06T08:19:31.801Z,51.5
2023-02-06T08:20:48.025Z,49.3
2023-02-06T08:22:04.266Z,50.2
2023-02-06T08:23:20.517Z,50.4
2023-02-06T08:24:36.750Z,49.1
2023-02-06T08:25:53.000Z,49.4
2023-02-06T08:27:08.247Z,49.9
2023-02-06T08:28:24.488Z,50.1
2023-02-06T08:29:40.731Z,49.4
2023-02-06T08:30:56.963Z,50.2
2023-02-06T08:32:13.231Z,49.3
2023-02-06T08:33:29.461Z,50.2
2023-02-06T08:34:45.684Z,49.6
2023-02-06T08:36:01.931Z,49.4
2023-02-06T08:37:18.184Z,49.1
2023-02-06T08:38:34.427Z,49.1
2023-02-06T08:39:50.648Z,49.4
2023-02-06T08:41:06.888Z,49.1
2023-02-06T08:42:23.146Z,60.5
2023-02-06T08:43:38.413Z,49.7
2023-02-06T08:44:54.627Z,49.4
2023-02-06T08:46:10.880Z,51.8
2023-02-06T08:47:27.113Z,49.6
2023-02-06T08:48:43.374Z,49.9
2023-02-06T08:49:59.608Z,49.3
2023-02-06T08:51:15.849Z,48.9
2023-02-06T08:52:32.101Z,50.4
2023-02-06T08:53:48.339Z,59.4
2023-02-06T08:55:04.571Z,49.7
2023-02-06T08:56:20.826Z,51.4
2023-02-06T08:57:37.046Z,56.2
2023-02-06T08:58:53.279Z,54.3
2023-02-06T09:00:08.533Z,59.7
2023-02-06T09:01:24.794Z,57
2023-02-06T09:02:41.046Z,56.7
2023-02-06T09:03:57.266Z,56.2
2023-02-06T09:05:13.509Z,57.5
2023-02-06T09:06:29.750Z,55.1
2023-02-06T09:07:45.981Z,52.5
2023-02-06T09:09:02.219Z,53.1
2023-02-06T09:10:18.468Z,53.4
2023-02-06T09:11:34.721Z,53.6
2023-02-06T09:14:07.182Z,58.8
2023-02-06T09:15:23.426Z,54.4
2023-02-06T09:16:38.685Z,54.1
2023-02-06T09:17:54.939Z,52.8
2023-02-06T09:19:11.167Z,53.9
2023-02-06T09:20:27.412Z,55.7
2023-02-06T09:21:43.666Z,56
2023-02-06T09:22:59.901Z,54.4
2023-02-06T09:24:16.149Z,53.9
2023-02-06T09:25:32.398Z,59.6
2023-02-06T09:26:48.607Z,54.7
2023-02-06T09:28:04.877Z,57.8
2023-02-06T09:29:21.104Z,50.1
2023-02-06T09:30:37.359Z,52.6
2023-02-06T09:31:53.575Z,48.9
2023-02-06T09:33:08.859Z,55.7
2023-02-06T09:34:25.070Z,56.2
2023-02-06T09:35:41.316Z,59.6
2023-02-06T09:36:57.572Z,52.5
2023-02-06T09:38:13.809Z,53.9
2023-02-06T09:39:30.040Z,54.3
2023-02-06T09:40:46.293Z,55.2
2023-02-06T09:42:02.528Z,52.6
2023-02-06T09:43:18.777Z,55.5
2023-02-06T09:44:35.018Z,55.5
2023-02-06T09:45:51.242Z,55.5
2023-02-06T09:47:07.483Z,53.8
2023-02-06T09:48:23.736Z,53.6
2023-02-06T09:49:38.974Z,56.2
2023-02-06T09:50:55.227Z,52.8
2023-02-06T09:52:11.479Z,53
2023-02-06T09:53:27.708Z,53.6
2023-02-06T09:54:43.962Z,53.3
2023-02-06T09:56:00.185Z,52
2023-02-06T09:57:16.422Z,58
2023-02-06T09:58:32.668Z,52
2023-02-06T09:59:48.914Z,51.5
2023-02-06T10:01:05.160Z,51.5
2023-02-06T10:02:21.418Z,57.6
2023-02-06T10:03:37.625Z,53.9
2023-02-06T10:04:53.894Z,51.5
2023-02-06T10:06:09.129Z,50.1
2023-02-06T10:07:25.397Z,49.9
2023-02-06T10:08:41.629Z,49.9
2023-02-06T10:09:57.873Z,49.9
2023-02-06T10:11:14.085Z,49.7
2023-02-06T10:12:30.355Z,49.7
2023-02-06T10:13:46.605Z,49.6
2023-02-06T10:15:02.819Z,49.9
2023-02-06T10:16:19.068Z,49.6
2023-02-06T10:17:35.325Z,49.1
2023-02-06T10:18:51.549Z,49.1
2023-02-06T10:20:07.800Z,49.6
2023-02-06T10:21:24.017Z,56.2
2023-02-06T10:22:39.300Z,56.8
2023-02-06T10:23:55.513Z,56.5
2023-02-06T10:25:11.760Z,50.4
2023-02-06T10:26:28.015Z,49.4
2023-02-06T10:27:44.250Z,52.8
2023-02-06T10:29:00.495Z,49.6
2023-02-06T10:30:16.723Z,54.4
2023-02-06T10:31:32.957Z,56.3
2023-02-06T10:32:49.218Z,57
2023-02-06T10:34:05.450Z,56.2
2023-02-06T10:35:21.700Z,57.8
2023-02-06T10:36:37.929Z,55.4
2023-02-06T10:37:54.169Z,56.5
2023-02-06T10:39:09.433Z,49.4
2023-02-06T10:40:25.685Z,49.9
2023-02-06T10:41:41.922Z,49.9
2023-02-06T10:42:58.166Z,49.1
2023-02-06T10:44:14.397Z,51.5
2023-02-06T10:45:30.639Z,50.2
2023-02-06T10:46:46.865Z,54.6
2023-02-06T10:48:03.113Z,50.4
2023-02-06T10:49:19.361Z,53
2023-02-06T10:50:35.603Z,49.9
2023-02-06T10:51:51.824Z,49.9
2023-02-06T10:53:08.086Z,56.2
2023-02-06T10:54:24.315Z,50.4
2023-02-06T10:55:39.588Z,49.4
2023-02-06T10:56:55.834Z,51.2
2023-02-06T10:58:12.044Z,50.1
2023-02-06T10:59:28.285Z,49.4
2023-02-06T11:00:44.550Z,49.3
2023-02-06T11:02:00.766Z,50.2
2023-02-06T11:03:17.044Z,50.2
2023-02-06T11:04:33.249Z,50.2
2023-02-06T11:05:49.509Z,60.9
2023-02-06T11:07:05.750Z,49.9
2023-02-06T11:08:21.996Z,49.4
2023-02-06T11:09:38.211Z,49.3
2023-02-06T11:10:54.472Z,49.9
2023-02-06T11:12:09.742Z,49.7
2023-02-06T11:13:25.953Z,49.9
2023-02-06T11:14:42.195Z,50.4
2023-02-06T11:15:58.451Z,50.4
2023-02-06T11:17:14.696Z,49.6
2023-02-06T11:18:30.942Z,53.9
2023-02-06T11:19:47.171Z,49.7
2023-02-06T11:21:03.396Z,50.4
2023-02-06T11:22:19.653Z,51
2023-02-06T11:23:35.896Z,50.7
2023-02-06T11:24:52.128Z,50.4
2023-02-06T11:26:08.375Z,50.7
2023-02-06T11:27:24.614Z,50.5
2023-02-06T11:28:39.857Z,51.2
2023-02-06T11:29:56.122Z,51.5
2023-02-06T11:31:12.356Z,49.4
2023-02-06T11:32:28.613Z,49.7
2023-02-06T11:33:44.842Z,53
2023-02-06T11:35:01.087Z,49.9
2023-02-06T11:36:17.297Z,50.1
2023-02-06T11:37:33.552Z,55.1
2023-02-06T11:38:49.803Z,50.2
2023-02-06T11:40:06.043Z,50.9
2023-02-06T11:41:22.266Z,50.4
2023-02-06T11:42:38.536Z,50.1
2023-02-06T11:43:54.767Z,50.1
2023-02-06T11:45:10.035Z,50.2
2023-02-06T11:46:26.259Z,50.5
2023-02-06T11:47:42.511Z,49.9
2023-02-06T11:48:58.728Z,49.9
2023-02-06T11:50:14.964Z,49.4
2023-02-06T11:51:31.204Z,50.2
2023-02-06T11:52:47.456Z,49.7
2023-02-06T11:54:03.684Z,52.5
2023-02-06T11:55:19.952Z,55.1
2023-02-06T11:56:36.187Z,60.2
2023-02-06T11:57:52.429Z,60.1
2023-02-06T11:59:08.660Z,69.9
2023-02-06T12:00:24.914Z,58.3
2023-02-06T12:01:40.144Z,58.4
2023-02-06T12:02:56.389Z,59.7
2023-02-06T12:04:12.627Z,60.2
2023-02-06T12:05:28.889Z,60.1
2023-02-06T12:06:45.141Z,59.2
2023-02-06T12:08:01.349Z,57.2
2023-02-06T12:09:16.638Z,60.5
2023-02-06T12:10:32.852Z,59.6
2023-02-06T12:11:49.093Z,55.7
2023-02-06T12:13:05.340Z,53.9
2023-02-06T12:14:21.610Z,50.1
2023-02-06T12:15:37.836Z,50.4
2023-02-06T12:16:54.085Z,49.7
2023-02-06T12:18:10.318Z,50.2
2023-02-06T12:19:26.559Z,53.1
2023-02-06T12:20:42.787Z,57.6
2023-02-06T12:21:59.026Z,60.2
2023-02-06T12:23:15.277Z,59.4
2023-02-06T12:24:31.506Z,59.4
2023-02-06T12:25:46.775Z,58.6
2023-02-06T12:27:03.018Z,57.6
2023-02-06T12:28:19.243Z,61.3
2023-02-06T12:29:35.509Z,65.2
2023-02-06T12:30:51.726Z,55.4
2023-02-06T12:32:07.971Z,68.8
2023-02-06T12:33:24.205Z,62.1
2023-02-06T12:34:40.447Z,58.9
2023-02-06T12:35:56.705Z,63.8
2023-02-06T12:37:12.938Z,64.6
2023-02-06T12:38:29.166Z,58.6
2023-02-06T12:39:45.412Z,58.8
2023-02-06T12:41:01.651Z,63.9
2023-02-06T12:42:16.927Z,63.8
2023-02-06T12:43:33.151Z,62.3
2023-02-06T12:44:49.406Z,60.4
2023-02-06T12:46:05.627Z,61.7
2023-02-06T12:47:21.875Z,64.2
2023-02-06T12:48:38.133Z,64.2
2023-02-06T12:49:54.361Z,62.6
2023-02-06T12:51:10.609Z,62.8
2023-02-06T12:52:26.851Z,63.4
2023-02-06T12:53:43.078Z,58.1
2023-02-06T12:54:59.332Z,58
2023-02-06T12:56:15.564Z,60.9
2023-02-06T12:57:31.805Z,57.8
2023-02-06T12:58:47.050Z,62.5
2023-02-06T13:00:03.311Z,56.7
2023-02-06T13:01:19.529Z,58.8
2023-02-06T13:02:35.810Z,61.2
2023-02-06T13:03:52.011Z,57.6
2023-02-06T13:05:08.252Z,51.5
2023-02-06T13:06:24.531Z,50.2
2023-02-06T13:07:40.763Z,49.9
2023-02-06T13:08:56.989Z,51
2023-02-06T13:10:13.237Z,51.5
2023-02-06T13:11:29.491Z,50.2
2023-02-06T13:12:45.699Z,52.3
2023-02-06T13:14:01.968Z,50.7
2023-02-06T13:15:17.222Z,50.9
2023-02-06T13:16:33.453Z,52
2023-02-06T13:17:49.704Z,50.7
2023-02-06T13:19:05.936Z,53.1
2023-02-06T13:20:22.188Z,56.7
2023-02-06T13:21:38.398Z,52.3
2023-02-06T13:22:54.661Z,50.2
2023-02-06T13:24:10.896Z,51.7
2023-02-06T13:25:27.122Z,50.9
2023-02-06T13:26:43.365Z,51.8
2023-02-06T13:27:59.630Z,51
2023-02-06T13:29:15.870Z,52
2023-02-06T13:30:32.090Z,52.6
2023-02-06T13:31:47.343Z,51
2023-02-06T13:33:03.582Z,53.8
2023-02-06T13:34:19.836Z,54.4
2023-02-06T13:35:36.095Z,55.7
2023-02-06T13:36:52.324Z,50.4
2023-02-06T13:38:08.549Z,53.6
2023-02-06T13:39:24.823Z,51.8
2023-02-06T13:40:41.052Z,53.6
2023-02-06T13:41:57.265Z,50.4
2023-02-06T13:43:13.532Z,51.2
2023-02-06T13:44:29.777Z,51.5
2023-02-06T13:45:45.988Z,51.7
2023-02-06T13:47:02.231Z,51.4
2023-02-06T13:48:17.520Z,51.7
2023-02-06T13:49:33.755Z,52
2023-02-06T13:50:49.997Z,52
2023-02-06T13:52:06.212Z,51.5
2023-02-06T13:53:22.463Z,51
2023-02-06T13:54:38.692Z,50.7
2023-02-06T13:55:54.960Z,51.2
2023-02-06T13:57:11.199Z,54.9
2023-02-06T13:58:27.412Z,49.4
2023-02-06T13:59:43.678Z,51.5
2023-02-06T14:00:59.913Z,51
2023-02-06T14:02:16.154Z,49.9
2023-02-06T14:03:32.400Z,50.1
2023-02-06T14:04:47.663Z,51.4
2023-02-06T14:06:03.905Z,53
2023-02-06T14:07:20.117Z,50.7
2023-02-06T14:08:36.359Z,49.7
2023-02-06T14:09:52.626Z,51
2023-02-06T14:11:08.842Z,50.7
2023-02-06T14:12:25.098Z,51
2023-02-06T14:13:41.338Z,51
2023-02-06T14:14:57.566Z,50.4
2023-02-06T14:16:13.798Z,50.7
2023-02-06T14:17:30.059Z,54.6
2023-02-06T14:18:46.309Z,51.2
2023-02-06T14:20:02.524Z,51
2023-02-06T14:21:17.802Z,50.7
2023-02-06T14:22:34.018Z,50.7
2023-02-06T14:23:50.261Z,50.9
2023-02-06T14:25:06.505Z,50.2
2023-02-06T14:26:22.760Z,49.7
2023-02-06T14:27:39.019Z,51.5
2023-02-06T14:28:55.243Z,50.4
2023-02-06T14:30:11.465Z,51.4
2023-02-06T14:31:27.733Z,52
2023-02-06T14:32:43.000Z,50.7
2023-02-06T14:34:00.211Z,53
2023-02-06T14:35:16.429Z,51.7
2023-02-06T14:36:32.699Z,51.2
2023-02-06T14:37:47.958Z,50.4
2023-02-06T14:39:04.173Z,50.2
2023-02-06T14:41:36.644Z,50.4
2023-02-06T14:42:52.891Z,50.4
2023-02-06T14:44:09.135Z,49.9
2023-02-06T14:45:25.399Z,51.8
2023-02-06T14:46:41.641Z,50.7
2023-02-06T14:47:57.876Z,50.9
2023-02-06T14:49:14.120Z,51.5
2023-02-06T14:50:30.351Z,53.4
2023-02-06T14:51:46.596Z,50.4
2023-02-06T14:53:02.838Z,51
2023-02-06T14:54:18.097Z,48.8
2023-02-06T14:55:34.317Z,50.1
2023-02-06T14:56:50.571Z,51
2023-02-06T14:58:06.800Z,53
2023-02-06T14:59:23.054Z,50.2
2023-02-06T15:00:39.279Z,50.4
2023-02-06T15:01:55.519Z,55.7
2023-02-06T15:03:11.771Z,51
2023-02-06T15:04:28.020Z,51.2
2023-02-06T15:05:44.261Z,52
2023-02-06T15:07:00.478Z,52.8
2023-02-06T15:08:16.739Z,51.5
2023-02-06T15:09:32.979Z,50.9
2023-02-06T15:10:48.222Z,51.2
2023-02-06T15:12:04.487Z,50.9
2023-02-06T15:13:20.715Z,49.6
2023-02-06T15:14:36.966Z,51.2
2023-02-06T15:15:53.179Z,50.5
2023-02-06T15:17:09.434Z,51.7
2023-02-06T15:18:25.661Z,51.2
2023-02-06T15:19:41.922Z,50.4
2023-02-06T15:20:58.148Z,50.4
2023-02-06T15:22:14.413Z,49.4
2023-02-06T15:23:30.652Z,49.7
2023-02-06T15:24:46.874Z,56.5
2023-02-06T15:26:03.111Z,51
2023-02-06T15:27:18.393Z,50.7
2023-02-06T15:28:34.625Z,58.1
2023-02-06T15:29:50.845Z,51
2023-02-06T15:31:07.115Z,51.8
2023-02-06T15:32:23.341Z,50.7
2023-02-06T15:33:39.592Z,49.9
2023-02-06T15:34:55.834Z,52
2023-02-06T15:36:12.056Z,50.7
2023-02-06T15:37:28.318Z,49.9
2023-02-06T15:38:44.530Z,50.4
2023-02-06T15:40:00.794Z,51
2023-02-06T15:41:17.039Z,51.5
2023-02-06T15:42:33.272Z,54.9
2023-02-06T15:43:48.516Z,50.1
2023-02-06T15:45:04.752Z,49.4
2023-02-06T15:46:20.989Z,54.1
2023-02-06T15:47:37.250Z,53.1
2023-02-06T15:48:53.498Z,51.5
2023-02-06T15:50:09.736Z,50.4
2023-02-06T15:51:25.961Z,51
2023-02-06T15:52:42.221Z,49.6
2023-02-06T15:53:58.459Z,49.9
2023-02-06T15:55:14.698Z,49.4
2023-02-06T15:56:30.919Z,49.9
2023-02-06T15:57:47.156Z,50.4
2023-02-06T15:59:03.393Z,49.1
2023-02-06T16:00:18.651Z,50.2
2023-02-06T16:01:34.903Z,50.1
2023-02-06T16:02:51.134Z,50.9
2023-02-06T16:04:07.385Z,50.7
2023-02-06T16:05:23.649Z,50.9
2023-02-06T16:06:39.857Z,50.4
2023-02-06T16:07:56.131Z,49.7
2023-02-06T16:09:12.343Z,48.8
2023-02-06T16:10:28.607Z,49.3
2023-02-06T16:11:44.846Z,51.2
2023-02-06T16:13:01.083Z,49.4
2023-02-06T16:14:17.301Z,49.7
2023-02-06T16:15:33.572Z,50.4
2023-02-06T16:16:48.800Z,49.9
2023-02-06T16:18:05.053Z,52.6
2023-02-06T16:19:21.287Z,53
2023-02-06T16:20:37.544Z,49.9
2023-02-06T16:21:53.790Z,49.9
2023-02-06T16:23:10.042Z,51.5
2023-02-06T16:24:25.290Z,50.5
2023-02-06T16:25:41.532Z,57.2
2023-02-06T16:26:57.761Z,50.1
2023-02-06T16:28:14.017Z,49.9
2023-02-06T16:29:30.249Z,49.9
2023-02-06T16:30:46.473Z,49.9
2023-02-06T16:32:02.732Z,49.9
2023-02-06T16:33:18.989Z,49.6
2023-02-06T16:34:35.207Z,53
2023-02-06T16:35:51.500Z,48
2023-02-06T16:37:07.726Z,51.7
2023-02-06T16:38:24.005Z,48.9
2023-02-06T16:39:40.224Z,49.3
2023-02-06T16:40:55.556Z,50.1
2023-02-06T16:42:11.823Z,49.9
2023-02-06T16:43:28.119Z,50.4
2023-02-06T16:44:44.425Z,51.8
2023-02-06T16:46:00.727Z,50.5
2023-02-06T16:47:16.994Z,51.5
2023-02-06T16:48:33.294Z,57.3
2023-02-06T16:49:49.623Z,50.1
2023-02-06T16:51:05.882Z,49.9
2023-02-06T16:52:22.197Z,49.9
2023-02-06T16:53:38.475Z,51.7
2023-02-06T16:54:54.765Z,49.3
2023-02-06T16:56:11.079Z,50.7
2023-02-06T16:57:26.386Z,50.4
2023-02-06T16:58:42.670Z,51.2
2023-02-06T16:59:58.974Z,52.5
2023-02-06T17:01:15.287Z,50.7
2023-02-06T17:02:31.577Z,49.6
2023-02-06T17:03:47.868Z,50.4
2023-02-06T17:05:04.150Z,50.4
2023-02-06T17:06:20.452Z,50.4
2023-02-06T17:07:36.725Z,50.4
2023-02-06T17:08:53.038Z,49.9
2023-02-06T17:10:09.316Z,50.7
2023-02-06T17:11:25.636Z,55.4
2023-02-06T17:12:41.931Z,49.6